Grayson, North Carolina
Current Conditions -  °F | °C
As of 3:35 PM on Sunday 21 Dec 2014 (Local Time) from KGEV Reporting Station
Overcast Overcast  
Wind Chill: 35°   Ceiling: 1400
Heat Index: 38°   Visibility: 7mi
Dew Point: 32°   Wind: 5mph
Humidity: 77%   Direction: 120°ESE
Pressure: 30.13"   Gusts: NA
Location:  36.4481°N, 81.6486°W
Report Text: KGEV 212035Z AUTO 12004KT 7SM OVC014 04/00 A3013 RMK AO2 T00351002
Loading
Personal Weather Stations






























Interactive Weather Map New forecast layout! Learn more

10-Day Weather Forecast

Advertisements
Track Severe Weather on mobile